createdAt,value
2022-11-15T00:00:12.341Z,96520.38
2022-11-15T00:02:41.412Z,96518.38
2022-11-15T00:05:11.439Z,96520.44
2022-11-15T00:07:55.186Z,96508.81
2022-11-15T00:10:24.886Z,96510.84
2022-11-15T00:12:54.348Z,96510.28
2022-11-15T00:15:23.362Z,96510.53
2022-11-15T00:17:52.729Z,96512.78
2022-11-15T00:20:23.242Z,96513.41
2022-11-15T00:22:52.110Z,96508.97
2022-11-15T00:25:21.135Z,96515.00
2022-11-15T00:27:49.867Z,96509.78
2022-11-15T00:30:18.851Z,96503.94
2022-11-15T00:32:47.745Z,96501.72
2022-11-15T00:35:30.010Z,96502.91
2022-11-15T00:38:00.585Z,96504.28
2022-11-15T00:40:29.537Z,96495.19
2022-11-15T00:42:58.525Z,96494.41
2022-11-15T00:45:28.219Z,96488.53
2022-11-15T00:47:57.253Z,96492.13
2022-11-15T00:50:26.176Z,96484.50
2022-11-15T00:52:55.252Z,96482.72
2022-11-15T00:55:25.762Z,96485.69
2022-11-15T00:57:54.795Z,96479.66
2022-11-15T01:00:23.645Z,96473.19
2022-11-15T01:02:52.990Z,96473.41
2022-11-15T01:05:24.491Z,96469.16
2022-11-15T01:07:57.219Z,96471.94
2022-11-15T01:10:27.249Z,96468.53
2022-11-15T01:12:56.062Z,96460.88
2022-11-15T01:15:25.049Z,96460.88
2022-11-15T01:17:53.813Z,96459.72
2022-11-15T01:20:22.874Z,96458.53
2022-11-15T01:22:51.925Z,96460.13
2022-11-15T01:25:26.294Z,96452.31
2022-11-15T01:27:56.338Z,96459.16
2022-11-15T01:30:25.236Z,96458.94
2022-11-15T01:32:53.866Z,96452.56
2022-11-15T01:35:22.833Z,96449.75
2022-11-15T01:37:51.616Z,96447.75
2022-11-15T01:40:20.714Z,96444.78
2022-11-15T01:42:49.578Z,96447.00
2022-11-15T01:45:20.088Z,96442.41
2022-11-15T01:47:55.000Z,96446.63
2022-11-15T01:50:28.325Z,96442.00
2022-11-15T01:52:57.599Z,96435.81
2022-11-15T01:55:30.607Z,96430.59
2022-11-15T01:58:03.620Z,96436.59
2022-11-15T02:00:34.557Z,96430.19
2022-11-15T02:03:04.788Z,96429.22
2022-11-15T02:05:34.135Z,96424.34
2022-11-15T02:08:04.171Z,96418.94
2022-11-15T02:10:33.156Z,96416.16
2022-11-15T02:13:03.732Z,96425.97
2022-11-15T02:15:42.901Z,96415.72
2022-11-15T02:18:20.387Z,96414.91
2022-11-15T02:21:05.780Z,96412.31
2022-11-15T02:23:59.724Z,96407.72
2022-11-15T02:27:00.632Z,96410.94
2022-11-15T02:29:44.914Z,96403.09
2022-11-15T02:32:21.471Z,96395.84
2022-11-15T02:34:58.016Z,96397.63
2022-11-15T02:37:35.082Z,96392.78
2022-11-15T02:40:12.067Z,96393.78
2022-11-15T02:43:08.301Z,96396.38
2022-11-15T02:45:42.694Z,96386.34
2022-11-15T02:48:14.877Z,96383.72
2022-11-15T02:50:45.387Z,96385.72
2022-11-15T02:53:14.691Z,96379.50
2022-11-15T02:55:49.867Z,96384.91
2022-11-15T02:58:35.781Z,96383.50
2022-11-15T03:01:12.395Z,96381.25
2022-11-15T03:03:56.356Z,96383.81
2022-11-15T03:06:35.739Z,96376.34
2022-11-15T03:09:10.883Z,96380.09
2022-11-15T03:11:45.135Z,96373.34
2022-11-15T03:14:24.078Z,96379.28
2022-11-15T03:17:01.123Z,96369.91
2022-11-15T03:19:37.221Z,96370.59
2022-11-15T03:22:10.324Z,96373.13
2022-11-15T03:24:40.300Z,96379.06
2022-11-15T03:27:09.878Z,96366.38
2022-11-15T03:29:40.900Z,96363.53
2022-11-15T03:32:13.311Z,96370.09
2022-11-15T03:34:46.836Z,96371.47
2022-11-15T03:37:16.704Z,96368.59
2022-11-15T03:39:44.940Z,96359.97
2022-11-15T03:42:23.477Z,96359.38
2022-11-15T03:44:57.889Z,96367.97
2022-11-15T03:47:29.428Z,96358.53
2022-11-15T03:50:04.211Z,96363.94
2022-11-15T03:52:36.023Z,96361.53
2022-11-15T03:55:06.041Z,96364.13
2022-11-15T03:57:33.657Z,96356.66
2022-11-15T04:00:01.244Z,96359.47
2022-11-15T04:02:29.145Z,96359.00
2022-11-15T04:04:56.682Z,96355.78
2022-11-15T04:07:25.652Z,96356.16
2022-11-15T04:10:06.229Z,96354.91
2022-11-15T04:12:35.180Z,96340.81
2022-11-15T04:15:10.978Z,96352.78
2022-11-15T04:17:41.524Z,96348.75
2022-11-15T04:20:29.543Z,96344.25
2022-11-15T04:23:17.649Z,96341.38
2022-11-15T04:25:46.319Z,96334.94
2022-11-15T04:28:13.859Z,96340.47
2022-11-15T04:30:41.461Z,96342.66
2022-11-15T04:33:09.003Z,96347.56
2022-11-15T04:35:36.796Z,96341.13
2022-11-15T04:38:07.274Z,96340.69
2022-11-15T04:40:35.126Z,96345.06
2022-11-15T04:43:04.177Z,96342.19
2022-11-15T04:45:32.442Z,96336.53
2022-11-15T04:47:59.992Z,96321.47
2022-11-15T04:50:27.553Z,96327.03
2022-11-15T04:52:56.168Z,96319.59
2022-11-15T04:55:24.981Z,96326.78
2022-11-15T04:58:00.940Z,96323.53
2022-11-15T05:00:29.912Z,96323.53
2022-11-15T05:03:15.128Z,96318.97
2022-11-15T05:05:42.670Z,96316.16
2022-11-15T05:08:10.455Z,96312.41
2022-11-15T05:10:39.321Z,96314.66
2022-11-15T05:13:06.830Z,96313.66
2022-11-15T05:15:34.332Z,96308.28
2022-11-15T05:18:02.092Z,96302.91
2022-11-15T05:20:29.595Z,96308.44
2022-11-15T05:22:57.318Z,96303.25
2022-11-15T05:25:25.047Z,96309.06
2022-11-15T05:27:54.130Z,96306.47
2022-11-15T05:30:22.015Z,96300.84
2022-11-15T05:32:49.722Z,96302.97
2022-11-15T05:35:23.541Z,96302.97
2022-11-15T05:37:51.275Z,96303.63
2022-11-15T05:40:19.080Z,96300.47
2022-11-15T05:42:47.646Z,96290.53
2022-11-15T05:45:18.496Z,96297.31
2022-11-15T05:47:49.446Z,96289.50
2022-11-15T05:50:20.386Z,96289.69
2022-11-15T05:52:49.228Z,96289.69
2022-11-15T05:55:17.243Z,96287.91
2022-11-15T05:57:44.869Z,96282.50
2022-11-15T06:00:13.616Z,96278.13
2022-11-15T06:02:42.466Z,96281.72
2022-11-15T06:05:10.049Z,96275.69
2022-11-15T06:07:37.587Z,96284.47
2022-11-15T06:10:05.700Z,96278.31
2022-11-15T06:12:33.179Z,96276.50
2022-11-15T06:15:00.686Z,96284.31
2022-11-15T06:17:29.225Z,96282.09
2022-11-15T06:19:58.062Z,96283.69
2022-11-15T06:22:25.593Z,96288.09
2022-11-15T06:24:54.915Z,96296.91
2022-11-15T06:27:24.765Z,96297.88
2022-11-15T06:39:25.467Z,96301.47
2022-11-15T06:44:34.868Z,96298.03
2022-11-15T06:47:02.513Z,96299.84
2022-11-15T06:49:30.188Z,96312.06
2022-11-15T07:08:19.491Z,96299.84
2022-11-15T07:10:47.597Z,96300.47
2022-11-15T07:13:18.260Z,96304.50
2022-11-15T07:15:46.947Z,96301.72
2022-11-15T07:18:19.578Z,96298.97
2022-11-15T07:20:48.113Z,96293.56
2022-11-15T07:23:17.784Z,96296.59
2022-11-15T07:25:46.215Z,96297.06
2022-11-15T07:28:16.262Z,96298.84
2022-11-15T08:42:25.278Z,96210.16
2022-11-15T08:50:35.122Z,96222.00
2022-11-15T08:59:22.076Z,96222.41
2022-11-15T09:01:51.241Z,96223.84
2022-11-15T09:04:22.434Z,96219.88
2022-11-15T09:06:55.040Z,96214.88
2022-11-15T09:09:24.636Z,96214.88
2022-11-15T09:15:14.840Z,96208.97
2022-11-15T09:17:43.985Z,96196.84
2022-11-15T09:20:20.029Z,96191.53
2022-11-15T09:26:04.967Z,96187.28
2022-11-15T10:29:55.565Z,96142.47
2022-11-15T10:36:32.546Z,96119.81
2022-11-15T10:53:31.600Z,96094.78
2022-11-15T10:56:27.595Z,96084.72
2022-11-15T10:59:01.630Z,96088.03
2022-11-15T11:05:12.104Z,96097.75
2022-11-15T12:04:04.449Z,96056.91
2022-11-15T12:07:29.040Z,96044.44
2022-11-15T12:10:58.906Z,96053.56
2022-11-15T12:20:42.240Z,96044.97
2022-11-15T12:24:08.605Z,96046.59
2022-11-15T12:26:56.317Z,96043.97
2022-11-15T12:33:19.154Z,96047.03
2022-11-15T12:36:29.605Z,96038.34
2022-11-15T12:42:44.596Z,96039.72
2022-11-15T12:45:43.954Z,96022.13
2022-11-15T12:49:04.545Z,96013.38
2022-11-15T12:52:16.671Z,96012.94
2022-11-15T14:02:44.964Z,95973.66
2022-11-15T14:28:09.672Z,95925.19
2022-11-15T14:30:59.372Z,95911.38
2022-11-15T14:38:16.411Z,95914.25
2022-11-15T14:42:04.830Z,95913.09
2022-11-15T14:53:23.258Z,95910.22
2022-11-15T15:06:17.485Z,95894.66
2022-11-15T15:25:25.469Z,95866.56
2022-11-15T15:27:53.065Z,95861.94
2022-11-15T15:30:20.916Z,95854.81
2022-11-15T15:32:48.425Z,95852.16
2022-11-15T15:35:16.994Z,95857.72
2022-11-15T15:37:45.802Z,95859.97
2022-11-15T15:40:17.861Z,95862.00
2022-11-15T15:42:45.707Z,95855.16
2022-11-15T15:45:13.580Z,95855.38
2022-11-15T15:47:41.430Z,95856.41
2022-11-15T15:50:24.174Z,95860.28
2022-11-15T15:52:52.527Z,95853.88
2022-11-15T15:55:22.294Z,95851.34
2022-11-15T15:57:50.434Z,95842.97
2022-11-15T16:00:19.672Z,95837.81
2022-11-15T16:02:47.772Z,95834.22
2022-11-15T16:05:15.341Z,95831.47
2022-11-15T16:07:44.168Z,95827.69
2022-11-15T16:10:21.204Z,95831.16
2022-11-15T16:12:50.217Z,95822.59
2022-11-15T16:15:18.557Z,95822.84
2022-11-15T16:17:49.531Z,95822.69
2022-11-15T16:20:33.646Z,95818.91
2022-11-15T16:23:07.353Z,95810.66
2022-11-15T16:25:41.776Z,95820.56
2022-11-15T16:28:18.553Z,95816.75
2022-11-15T16:30:46.524Z,95809.16
2022-11-15T16:33:14.259Z,95812.19
2022-11-15T16:35:41.899Z,95802.94
2022-11-15T16:38:16.226Z,95802.38
2022-11-15T16:40:44.161Z,95802.22
2022-11-15T16:43:11.793Z,95800.25
2022-11-15T16:45:40.625Z,95803.28
2022-11-15T16:48:08.300Z,95801.50
2022-11-15T16:50:40.747Z,95805.81
2022-11-15T16:53:08.754Z,95799.41
2022-11-15T16:55:36.326Z,95796.41
2022-11-15T16:58:03.853Z,95794.00
2022-11-15T17:00:31.532Z,95795.22
2022-11-15T17:03:00.460Z,95791.22
2022-11-15T17:05:40.138Z,95793.47
2022-11-15T17:14:10.568Z,95782.09
2022-11-15T17:16:42.274Z,95771.84
2022-11-15T17:19:18.323Z,95776.13
2022-11-15T17:21:46.995Z,95776.53
2022-11-15T17:24:14.567Z,95778.56
2022-11-15T17:26:42.906Z,95781.41
2022-11-15T17:29:10.683Z,95774.19
2022-11-15T17:31:39.740Z,95777.59
2022-11-15T17:34:08.902Z,95772.56
2022-11-15T17:36:38.158Z,95779.81
2022-11-15T17:39:08.982Z,95774.25
2022-11-15T17:41:45.262Z,95773.66
2022-11-15T17:44:27.338Z,95769.63
2022-11-15T17:46:56.816Z,95766.41
2022-11-15T17:49:25.827Z,95756.19
2022-11-15T17:51:54.845Z,95750.97
2022-11-15T17:54:22.416Z,95747.16
2022-11-15T17:56:50.017Z,95749.97
2022-11-15T17:59:21.316Z,95739.16
2022-11-15T18:01:49.252Z,95737.16
2022-11-15T18:04:16.836Z,95735.38
2022-11-15T18:06:44.434Z,95734.19
2022-11-15T18:09:13.537Z,95737.22
2022-11-15T18:11:43.168Z,95735.63
2022-11-15T18:14:14.938Z,95738.63
2022-11-15T18:16:43.407Z,95731.81
2022-11-15T18:19:13.573Z,95730.25
2022-11-15T18:21:57.030Z,95726.59
2022-11-15T18:24:28.153Z,95722.97
2022-11-15T18:26:56.563Z,95718.75
2022-11-15T18:29:25.497Z,95710.94
2022-11-15T18:31:56.041Z,95707.72
2022-11-15T18:34:24.537Z,95711.38
2022-11-15T18:36:53.370Z,95711.38
2022-11-15T18:39:21.278Z,95706.94
2022-11-15T18:41:50.304Z,95711.38
2022-11-15T18:44:18.718Z,95708.16
2022-11-15T18:46:48.571Z,95708.16
2022-11-15T18:49:19.592Z,95706.75
2022-11-15T18:51:47.515Z,95701.75
2022-11-15T18:54:18.076Z,95698.91
2022-11-15T18:56:46.956Z,95694.50
2022-11-15T18:59:16.622Z,95693.91
2022-11-15T19:01:47.126Z,95693.91
2022-11-15T19:04:17.444Z,95683.47
2022-11-15T19:06:47.012Z,95678.44
2022-11-15T19:09:16.393Z,95684.88
2022-11-15T19:11:45.459Z,95679.50
2022-11-15T19:14:14.797Z,95672.06
2022-11-15T19:16:45.551Z,95673.28
2022-11-15T19:19:15.626Z,95674.31
2022-11-15T19:21:43.444Z,95672.91
2022-11-15T19:24:11.428Z,95660.88
2022-11-15T19:26:39.647Z,95660.88
2022-11-15T19:29:10.177Z,95654.47
2022-11-15T19:31:38.590Z,95655.69
2022-11-15T19:34:08.030Z,95654.31
2022-11-15T19:36:38.139Z,95645.88
2022-11-15T19:39:09.580Z,95647.91
2022-11-15T19:41:38.601Z,95642.09
2022-11-15T19:44:06.454Z,95643.91
2022-11-15T19:46:34.734Z,95643.06
2022-11-15T19:49:02.755Z,95645.09
2022-11-15T19:51:31.982Z,95641.88
2022-11-15T19:54:06.134Z,95639.72
2022-11-15T19:56:34.971Z,95647.75
2022-11-15T19:59:03.245Z,95642.34
2022-11-15T20:01:32.756Z,95645.75
2022-11-15T20:04:01.353Z,95638.94
2022-11-15T20:06:32.141Z,95637.34
2022-11-15T20:09:00.002Z,95638.56
2022-11-15T20:11:28.034Z,95636.97
2022-11-15T20:13:58.335Z,95634.13
2022-11-15T20:16:26.099Z,95632.75
2022-11-15T20:18:53.980Z,95637.38
2022-11-15T20:21:22.134Z,95633.38
2022-11-15T20:23:51.635Z,95631.78
2022-11-15T20:26:19.925Z,95629.38
2022-11-15T20:28:48.165Z,95625.97
2022-11-15T20:31:16.962Z,95624.34
2022-11-15T20:33:45.008Z,95608.91
2022-11-15T20:36:15.262Z,95610.50
2022-11-15T20:38:43.367Z,95597.25
2022-11-15T20:41:13.051Z,95601.47
2022-11-15T20:43:43.250Z,95601.25
2022-11-15T20:46:11.147Z,95598.66
2022-11-15T20:48:38.710Z,95605.44
2022-11-15T20:51:08.246Z,95604.47
2022-11-15T20:53:36.240Z,95593.81
2022-11-15T20:56:08.079Z,95592.78
2022-11-15T21:03:56.782Z,95579.19
